sensor_id;sensor_type;location;lat;lon;timestamp;P1;durP1;ratioP1;P2;durP2;ratioP2
5040;SDS011;2539;52.568;13.364;2022-12-20T00:01:22;41.57;;;19.30;;
5040;SDS011;2539;52.568;13.364;2022-12-20T00:03:50;34.27;;;17.67;;
5040;SDS011;2539;52.568;13.364;2022-12-20T00:06:18;31.50;;;19.00;;
5040;SDS011;2539;52.568;13.364;2022-12-20T00:08:45;21.97;;;15.73;;
5040;SDS011;2539;52.568;13.364;2022-12-20T00:11:12;22.80;;;15.40;;
5040;SDS011;2539;52.568;13.364;2022-12-20T00:13:38;24.50;;;16.83;;
5040;SDS011;2539;52.568;13.364;2022-12-20T00:18:36;26.13;;;16.50;;
5040;SDS011;2539;52.568;13.364;2022-12-20T00:21:04;19.60;;;14.90;;
5040;SDS011;2539;52.568;13.364;2022-12-20T00:23:32;25.40;;;15.10;;
5040;SDS011;2539;52.568;13.364;2022-12-20T00:26:00;23.03;;;15.33;;
5040;SDS011;2539;52.568;13.364;2022-12-20T00:28:34;19.53;;;14.10;;
5040;SDS011;2539;52.568;13.364;2022-12-20T00:31:00;22.30;;;15.40;;
5040;SDS011;2539;52.568;13.364;2022-12-20T00:33:27;22.00;;;15.03;;
5040;SDS011;2539;52.568;13.364;2022-12-20T00:35:56;21.27;;;14.50;;
5040;SDS011;2539;52.568;13.364;2022-12-20T00:38:23;20.83;;;13.97;;
5040;SDS011;2539;52.568;13.364;2022-12-20T00:43:36;20.70;;;14.40;;
5040;SDS011;2539;52.568;13.364;2022-12-20T00:46:05;22.87;;;15.20;;
5040;SDS011;2539;52.568;13.364;2022-12-20T00:48:32;23.33;;;14.03;;
5040;SDS011;2539;52.568;13.364;2022-12-20T00:51:00;22.40;;;14.00;;
5040;SDS011;2539;52.568;13.364;2022-12-20T00:53:28;19.77;;;14.07;;
5040;SDS011;2539;52.568;13.364;2022-12-20T00:55:55;21.70;;;14.80;;
5040;SDS011;2539;52.568;13.364;2022-12-20T00:58:22;21.80;;;14.90;;
5040;SDS011;2539;52.568;13.364;2022-12-20T01:00:49;26.27;;;14.57;;
5040;SDS011;2539;52.568;13.364;2022-12-20T01:03:15;18.33;;;13.40;;
5040;SDS011;2539;52.568;13.364;2022-12-20T01:05:51;19.60;;;13.47;;
5040;SDS011;2539;52.568;13.364;2022-12-20T01:08:19;19.50;;;13.90;;
5040;SDS011;2539;52.568;13.364;2022-12-20T01:11:02;19.83;;;12.90;;
5040;SDS011;2539;52.568;13.364;2022-12-20T01:13:45;19.40;;;12.73;;
5040;SDS011;2539;52.568;13.364;2022-12-20T01:16:17;19.93;;;14.07;;
5040;SDS011;2539;52.568;13.364;2022-12-20T01:18:45;20.70;;;13.70;;
5040;SDS011;2539;52.568;13.364;2022-12-20T01:21:12;20.80;;;12.77;;
5040;SDS011;2539;52.568;13.364;2022-12-20T01:23:39;19.43;;;13.20;;
5040;SDS011;2539;52.568;13.364;2022-12-20T01:26:07;20.40;;;13.70;;
5040;SDS011;2539;52.568;13.364;2022-12-20T01:28:37;20.17;;;13.43;;
5040;SDS011;2539;52.568;13.364;2022-12-20T01:31:07;19.43;;;13.77;;
5040;SDS011;2539;52.568;13.364;2022-12-20T01:33:34;17.93;;;12.90;;
5040;SDS011;2539;52.568;13.364;2022-12-20T01:36:02;20.63;;;12.57;;
5040;SDS011;2539;52.568;13.364;2022-12-20T01:38:31;19.17;;;12.97;;
5040;SDS011;2539;52.568;13.364;2022-12-20T01:40:57;20.63;;;13.07;;
5040;SDS011;2539;52.568;13.364;2022-12-20T01:43:28;20.37;;;12.87;;
5040;SDS011;2539;52.568;13.364;2022-12-20T01:46:13;18.50;;;12.70;;
5040;SDS011;2539;52.568;13.364;2022-12-20T01:48:42;19.57;;;13.07;;
5040;SDS011;2539;52.568;13.364;2022-12-20T01:51:12;16.77;;;12.40;;
5040;SDS011;2539;52.568;13.364;2022-12-20T01:53:39;17.93;;;11.80;;
5040;SDS011;2539;52.568;13.364;2022-12-20T01:56:05;20.20;;;12.97;;
5040;SDS011;2539;52.568;13.364;2022-12-20T01:58:33;17.67;;;12.27;;
5040;SDS011;2539;52.568;13.364;2022-12-20T02:01:01;18.50;;;12.00;;
5040;SDS011;2539;52.568;13.364;2022-12-20T02:03:27;22.53;;;13.57;;
5040;SDS011;2539;52.568;13.364;2022-12-20T02:05:57;17.80;;;12.27;;
5040;SDS011;2539;52.568;13.364;2022-12-20T02:08:39;17.30;;;11.63;;
5040;SDS011;2539;52.568;13.364;2022-12-20T02:11:23;18.33;;;11.87;;
5040;SDS011;2539;52.568;13.364;2022-12-20T02:14:13;18.57;;;13.23;;
5040;SDS011;2539;52.568;13.364;2022-12-20T02:17:07;18.17;;;12.60;;
5040;SDS011;2539;52.568;13.364;2022-12-20T02:28:24;17.83;;;12.60;;
5040;SDS011;2539;52.568;13.364;2022-12-20T02:30:53;20.07;;;12.93;;
5040;SDS011;2539;52.568;13.364;2022-12-20T02:33:22;18.53;;;13.23;;
5040;SDS011;2539;52.568;13.364;2022-12-20T02:35:53;19.70;;;13.40;;
5040;SDS011;2539;52.568;13.364;2022-12-20T02:41:15;21.37;;;13.27;;
5040;SDS011;2539;52.568;13.364;2022-12-20T02:43:48;19.23;;;13.50;;
5040;SDS011;2539;52.568;13.364;2022-12-20T02:46:39;19.70;;;12.63;;
5040;SDS011;2539;52.568;13.364;2022-12-20T02:49:09;20.47;;;13.50;;
5040;SDS011;2539;52.568;13.364;2022-12-20T02:51:40;18.17;;;12.33;;
5040;SDS011;2539;52.568;13.364;2022-12-20T02:54:08;18.87;;;12.83;;
5040;SDS011;2539;52.568;13.364;2022-12-20T02:56:37;20.00;;;12.43;;
5040;SDS011;2539;52.568;13.364;2022-12-20T02:59:20;19.00;;;11.67;;
5040;SDS011;2539;52.568;13.364;2022-12-20T03:01:53;18.10;;;12.80;;
5040;SDS011;2539;52.568;13.364;2022-12-20T03:04:22;17.20;;;12.30;;
5040;SDS011;2539;52.568;13.364;2022-12-20T03:07:02;15.43;;;11.70;;
5040;SDS011;2539;52.568;13.364;2022-12-20T03:09:29;16.70;;;11.97;;
5040;SDS011;2539;52.568;13.364;2022-12-20T03:11:58;16.60;;;11.40;;
5040;SDS011;2539;52.568;13.364;2022-12-20T03:14:24;14.33;;;11.13;;
5040;SDS011;2539;52.568;13.364;2022-12-20T03:16:51;17.93;;;12.20;;
5040;SDS011;2539;52.568;13.364;2022-12-20T03:19:18;17.43;;;12.20;;
5040;SDS011;2539;52.568;13.364;2022-12-20T03:21:44;17.87;;;11.80;;
5040;SDS011;2539;52.568;13.364;2022-12-20T03:24:11;15.90;;;10.93;;
5040;SDS011;2539;52.568;13.364;2022-12-20T03:26:39;15.93;;;11.37;;
5040;SDS011;2539;52.568;13.364;2022-12-20T03:29:05;21.13;;;12.60;;
5040;SDS011;2539;52.568;13.364;2022-12-20T03:31:32;18.33;;;12.23;;
5040;SDS011;2539;52.568;13.364;2022-12-20T03:33:58;19.30;;;12.90;;
5040;SDS011;2539;52.568;13.364;2022-12-20T03:36:25;20.90;;;13.03;;
5040;SDS011;2539;52.568;13.364;2022-12-20T03:38:51;20.40;;;12.17;;
5040;SDS011;2539;52.568;13.364;2022-12-20T03:41:19;17.87;;;11.90;;
5040;SDS011;2539;52.568;13.364;2022-12-20T03:43:49;18.43;;;12.17;;
5040;SDS011;2539;52.568;13.364;2022-12-20T03:46:15;15.80;;;11.73;;
5040;SDS011;2539;52.568;13.364;2022-12-20T03:48:42;15.40;;;11.60;;
5040;SDS011;2539;52.568;13.364;2022-12-20T03:51:09;19.13;;;12.53;;
5040;SDS011;2539;52.568;13.364;2022-12-20T03:53:35;12.93;;;10.37;;
5040;SDS011;2539;52.568;13.364;2022-12-20T03:56:02;17.17;;;11.43;;
5040;SDS011;2539;52.568;13.364;2022-12-20T03:58:28;19.00;;;12.20;;
5040;SDS011;2539;52.568;13.364;2022-12-20T04:00:55;16.93;;;11.90;;
5040;SDS011;2539;52.568;13.364;2022-12-20T04:03:22;17.67;;;12.43;;
5040;SDS011;2539;52.568;13.364;2022-12-20T04:05:48;17.27;;;12.20;;
5040;SDS011;2539;52.568;13.364;2022-12-20T04:08:14;20.47;;;12.47;;
5040;SDS011;2539;52.568;13.364;2022-12-20T04:10:41;19.90;;;12.90;;
5040;SDS011;2539;52.568;13.364;2022-12-20T04:13:26;20.57;;;13.17;;
5040;SDS011;2539;52.568;13.364;2022-12-20T04:15:52;16.00;;;11.73;;
5040;SDS011;2539;52.568;13.364;2022-12-20T04:18:18;16.73;;;11.53;;
5040;SDS011;2539;52.568;13.364;2022-12-20T04:20:44;20.30;;;12.33;;
5040;SDS011;2539;52.568;13.364;2022-12-20T04:23:16;17.77;;;12.63;;
5040;SDS011;2539;52.568;13.364;2022-12-20T04:25:42;16.83;;;11.70;;
5040;SDS011;2539;52.568;13.364;2022-12-20T04:28:09;20.83;;;12.20;;
5040;SDS011;2539;52.568;13.364;2022-12-20T04:30:35;18.70;;;13.03;;
5040;SDS011;2539;52.568;13.364;2022-12-20T04:33:01;16.93;;;12.97;;
5040;SDS011;2539;52.568;13.364;2022-12-20T04:35:29;19.70;;;13.70;;
5040;SDS011;2539;52.568;13.364;2022-12-20T04:37:55;21.53;;;12.50;;
5040;SDS011;2539;52.568;13.364;2022-12-20T04:40:21;20.67;;;13.93;;
5040;SDS011;2539;52.568;13.364;2022-12-20T04:42:47;19.47;;;13.63;;
5040;SDS011;2539;52.568;13.364;2022-12-20T04:45:14;17.90;;;12.83;;
5040;SDS011;2539;52.568;13.364;2022-12-20T04:47:40;19.20;;;13.20;;
5040;SDS011;2539;52.568;13.364;2022-12-20T04:50:06;20.10;;;13.70;;
5040;SDS011;2539;52.568;13.364;2022-12-20T04:52:33;17.87;;;12.13;;
5040;SDS011;2539;52.568;13.364;2022-12-20T04:55:18;16.50;;;12.00;;
5040;SDS011;2539;52.568;13.364;2022-12-20T04:57:44;19.70;;;13.10;;
5040;SDS011;2539;52.568;13.364;2022-12-20T05:00:11;17.57;;;11.93;;
5040;SDS011;2539;52.568;13.364;2022-12-20T05:02:39;17.00;;;12.43;;
5040;SDS011;2539;52.568;13.364;2022-12-20T05:05:05;16.50;;;11.57;;
5040;SDS011;2539;52.568;13.364;2022-12-20T05:07:31;17.80;;;12.20;;
5040;SDS011;2539;52.568;13.364;2022-12-20T05:09:57;16.03;;;11.97;;
5040;SDS011;2539;52.568;13.364;2022-12-20T05:12:23;19.40;;;12.40;;
5040;SDS011;2539;52.568;13.364;2022-12-20T05:14:49;18.00;;;13.13;;
5040;SDS011;2539;52.568;13.364;2022-12-20T05:17:16;17.30;;;11.33;;
5040;SDS011;2539;52.568;13.364;2022-12-20T05:19:42;18.87;;;13.07;;
5040;SDS011;2539;52.568;13.364;2022-12-20T05:22:09;15.53;;;11.27;;
5040;SDS011;2539;52.568;13.364;2022-12-20T05:24:54;17.13;;;12.37;;
5040;SDS011;2539;52.568;13.364;2022-12-20T05:27:39;19.17;;;13.10;;
5040;SDS011;2539;52.568;13.364;2022-12-20T05:30:05;19.60;;;13.43;;
5040;SDS011;2539;52.568;13.364;2022-12-20T05:32:33;19.37;;;12.53;;
5040;SDS011;2539;52.568;13.364;2022-12-20T05:34:59;18.17;;;12.60;;
5040;SDS011;2539;52.568;13.364;2022-12-20T05:37:25;19.60;;;13.13;;
5040;SDS011;2539;52.568;13.364;2022-12-20T05:39:52;17.07;;;12.00;;
5040;SDS011;2539;52.568;13.364;2022-12-20T05:42:18;16.93;;;12.20;;
5040;SDS011;2539;52.568;13.364;2022-12-20T05:44:44;20.33;;;13.60;;
5040;SDS011;2539;52.568;13.364;2022-12-20T05:47:10;17.53;;;12.67;;
5040;SDS011;2539;52.568;13.364;2022-12-20T05:49:37;22.30;;;12.50;;
5040;SDS011;2539;52.568;13.364;2022-12-20T05:52:03;16.27;;;12.30;;
5040;SDS011;2539;52.568;13.364;2022-12-20T05:54:30;16.63;;;11.90;;
5040;SDS011;2539;52.568;13.364;2022-12-20T05:56:56;17.43;;;12.13;;
5040;SDS011;2539;52.568;13.364;2022-12-20T05:59:23;14.27;;;11.20;;
5040;SDS011;2539;52.568;13.364;2022-12-20T06:01:49;14.37;;;11.50;;
5040;SDS011;2539;52.568;13.364;2022-12-20T06:04:15;16.60;;;12.20;;
5040;SDS011;2539;52.568;13.364;2022-12-20T06:06:42;17.13;;;12.20;;
5040;SDS011;2539;52.568;13.364;2022-12-20T06:09:08;15.57;;;12.57;;
5040;SDS011;2539;52.568;13.364;2022-12-20T06:11:34;15.73;;;10.97;;
5040;SDS011;2539;52.568;13.364;2022-12-20T06:14:00;17.40;;;12.90;;
5040;SDS011;2539;52.568;13.364;2022-12-20T06:16:27;19.27;;;12.10;;
5040;SDS011;2539;52.568;13.364;2022-12-20T06:18:53;15.93;;;12.20;;
5040;SDS011;2539;52.568;13.364;2022-12-20T06:21:19;18.23;;;12.07;;
5040;SDS011;2539;52.568;13.364;2022-12-20T06:23:46;16.07;;;12.93;;
5040;SDS011;2539;52.568;13.364;2022-12-20T06:26:12;16.43;;;11.60;;
5040;SDS011;2539;52.568;13.364;2022-12-20T06:28:38;20.97;;;12.80;;
5040;SDS011;2539;52.568;13.364;2022-12-20T06:31:07;17.40;;;11.83;;
5040;SDS011;2539;52.568;13.364;2022-12-20T06:33:35;21.07;;;13.50;;
5040;SDS011;2539;52.568;13.364;2022-12-20T06:36:02;17.60;;;12.30;;
5040;SDS011;2539;52.568;13.364;2022-12-20T06:38:29;19.87;;;12.20;;
5040;SDS011;2539;52.568;13.364;2022-12-20T06:40:55;19.77;;;12.77;;
5040;SDS011;2539;52.568;13.364;2022-12-20T06:43:22;16.80;;;12.53;;
5040;SDS011;2539;52.568;13.364;2022-12-20T06:45:48;18.43;;;12.80;;
5040;SDS011;2539;52.568;13.364;2022-12-20T06:48:14;18.57;;;12.30;;
5040;SDS011;2539;52.568;13.364;2022-12-20T06:50:41;21.87;;;13.43;;
5040;SDS011;2539;52.568;13.364;2022-12-20T06:53:07;17.60;;;12.60;;
5040;SDS011;2539;52.568;13.364;2022-12-20T06:55:34;21.43;;;12.10;;
5040;SDS011;2539;52.568;13.364;2022-12-20T06:58:00;18.03;;;12.73;;
5040;SDS011;2539;52.568;13.364;2022-12-20T07:00:28;16.40;;;13.50;;
5040;SDS011;2539;52.568;13.364;2022-12-20T07:02:54;16.60;;;12.13;;
5040;SDS011;2539;52.568;13.364;2022-12-20T07:05:21;16.37;;;12.77;;
5040;SDS011;2539;52.568;13.364;2022-12-20T07:07:47;16.00;;;12.23;;
5040;SDS011;2539;52.568;13.364;2022-12-20T07:10:15;19.53;;;13.13;;
5040;SDS011;2539;52.568;13.364;2022-12-20T07:12:41;16.27;;;12.77;;
5040;SDS011;2539;52.568;13.364;2022-12-20T07:15:08;21.33;;;14.87;;
5040;SDS011;2539;52.568;13.364;2022-12-20T07:17:35;19.00;;;13.17;;
5040;SDS011;2539;52.568;13.364;2022-12-20T07:20:01;23.17;;;13.37;;
5040;SDS011;2539;52.568;13.364;2022-12-20T07:22:27;17.33;;;13.30;;
5040;SDS011;2539;52.568;13.364;2022-12-20T07:24:53;19.80;;;13.33;;
5040;SDS011;2539;52.568;13.364;2022-12-20T07:27:20;17.73;;;13.77;;
5040;SDS011;2539;52.568;13.364;2022-12-20T07:29:46;24.03;;;14.37;;
5040;SDS011;2539;52.568;13.364;2022-12-20T07:32:12;18.50;;;14.13;;
5040;SDS011;2539;52.568;13.364;2022-12-20T07:34:39;20.07;;;13.20;;
5040;SDS011;2539;52.568;13.364;2022-12-20T07:37:05;26.47;;;15.10;;
5040;SDS011;2539;52.568;13.364;2022-12-20T07:39:33;20.07;;;14.77;;
5040;SDS011;2539;52.568;13.364;2022-12-20T07:41:59;25.00;;;16.20;;
5040;SDS011;2539;52.568;13.364;2022-12-20T07:44:25;21.60;;;14.93;;
5040;SDS011;2539;52.568;13.364;2022-12-20T07:46:52;19.07;;;14.30;;
5040;SDS011;2539;52.568;13.364;2022-12-20T07:49:18;20.83;;;14.23;;
5040;SDS011;2539;52.568;13.364;2022-12-20T07:51:46;22.60;;;16.37;;
5040;SDS011;2539;52.568;13.364;2022-12-20T07:54:16;20.70;;;14.63;;
5040;SDS011;2539;52.568;13.364;2022-12-20T07:56:47;19.40;;;14.67;;
5040;SDS011;2539;52.568;13.364;2022-12-20T07:59:19;24.20;;;15.97;;
5040;SDS011;2539;52.568;13.364;2022-12-20T08:01:49;25.73;;;18.47;;
5040;SDS011;2539;52.568;13.364;2022-12-20T08:04:17;25.17;;;17.23;;
5040;SDS011;2539;52.568;13.364;2022-12-20T08:06:45;26.63;;;16.10;;
5040;SDS011;2539;52.568;13.364;2022-12-20T08:09:13;23.80;;;16.30;;
5040;SDS011;2539;52.568;13.364;2022-12-20T08:11:42;21.87;;;16.57;;
5040;SDS011;2539;52.568;13.364;2022-12-20T08:14:11;23.83;;;16.17;;
5040;SDS011;2539;52.568;13.364;2022-12-20T08:16:37;25.03;;;16.90;;
5040;SDS011;2539;52.568;13.364;2022-12-20T08:19:03;24.70;;;16.33;;
5040;SDS011;2539;52.568;13.364;2022-12-20T08:21:29;22.23;;;16.07;;
5040;SDS011;2539;52.568;13.364;2022-12-20T08:23:55;37.93;;;16.50;;
5040;SDS011;2539;52.568;13.364;2022-12-20T08:26:21;23.80;;;15.70;;
5040;SDS011;2539;52.568;13.364;2022-12-20T08:28:48;29.17;;;17.20;;
5040;SDS011;2539;52.568;13.364;2022-12-20T08:31:14;25.40;;;17.53;;
5040;SDS011;2539;52.568;13.364;2022-12-20T08:33:40;26.30;;;17.40;;
5040;SDS011;2539;52.568;13.364;2022-12-20T08:36:08;26.33;;;17.77;;
5040;SDS011;2539;52.568;13.364;2022-12-20T08:38:36;24.37;;;17.17;;
5040;SDS011;2539;52.568;13.364;2022-12-20T08:41:20;25.40;;;17.17;;
5040;SDS011;2539;52.568;13.364;2022-12-20T08:43:47;26.40;;;17.40;;
5040;SDS011;2539;52.568;13.364;2022-12-20T08:46:13;22.33;;;16.13;;
5040;SDS011;2539;52.568;13.364;2022-12-20T08:48:39;24.07;;;15.80;;
5040;SDS011;2539;52.568;13.364;2022-12-20T08:51:07;28.67;;;16.83;;
5040;SDS011;2539;52.568;13.364;2022-12-20T08:53:35;23.80;;;16.10;;
5040;SDS011;2539;52.568;13.364;2022-12-20T08:56:06;26.73;;;17.40;;
5040;SDS011;2539;52.568;13.364;2022-12-20T08:58:39;24.87;;;17.53;;
5040;SDS011;2539;52.568;13.364;2022-12-20T09:01:07;25.10;;;16.67;;
5040;SDS011;2539;52.568;13.364;2022-12-20T09:03:36;24.83;;;16.30;;
5040;SDS011;2539;52.568;13.364;2022-12-20T09:06:07;26.20;;;16.87;;
5040;SDS011;2539;52.568;13.364;2022-12-20T09:08:35;27.37;;;17.10;;
5040;SDS011;2539;52.568;13.364;2022-12-20T09:11:03;21.50;;;16.40;;
5040;SDS011;2539;52.568;13.364;2022-12-20T09:13:31;24.23;;;17.93;;
5040;SDS011;2539;52.568;13.364;2022-12-20T09:16:01;25.43;;;17.13;;
5040;SDS011;2539;52.568;13.364;2022-12-20T09:18:29;24.87;;;17.17;;
5040;SDS011;2539;52.568;13.364;2022-12-20T09:20:59;25.87;;;18.90;;
5040;SDS011;2539;52.568;13.364;2022-12-20T09:23:30;21.77;;;16.83;;
5040;SDS011;2539;52.568;13.364;2022-12-20T09:26:01;24.47;;;16.57;;
5040;SDS011;2539;52.568;13.364;2022-12-20T09:28:29;26.20;;;17.10;;
5040;SDS011;2539;52.568;13.364;2022-12-20T09:31:00;22.37;;;14.97;;
5040;SDS011;2539;52.568;13.364;2022-12-20T09:33:27;24.57;;;16.57;;
5040;SDS011;2539;52.568;13.364;2022-12-20T09:35:55;19.07;;;14.60;;
5040;SDS011;2539;52.568;13.364;2022-12-20T09:38:22;23.10;;;14.87;;
5040;SDS011;2539;52.568;13.364;2022-12-20T09:40:49;21.67;;;14.53;;
5040;SDS011;2539;52.568;13.364;2022-12-20T09:43:18;18.10;;;13.33;;
5040;SDS011;2539;52.568;13.364;2022-12-20T09:45:46;17.33;;;13.50;;
5040;SDS011;2539;52.568;13.364;2022-12-20T09:48:20;22.37;;;14.80;;
5040;SDS011;2539;52.568;13.364;2022-12-20T09:53:48;20.70;;;15.13;;
5040;SDS011;2539;52.568;13.364;2022-12-20T09:56:32;21.27;;;14.90;;
5040;SDS011;2539;52.568;13.364;2022-12-20T09:59:10;21.97;;;14.60;;
5040;SDS011;2539;52.568;13.364;2022-12-20T10:01:42;23.40;;;15.53;;
5040;SDS011;2539;52.568;13.364;2022-12-20T10:04:14;21.70;;;13.90;;
5040;SDS011;2539;52.568;13.364;2022-12-20T10:15:27;18.33;;;14.20;;
5040;SDS011;2539;52.568;13.364;2022-12-20T10:23:31;18.10;;;13.47;;
5040;SDS011;2539;52.568;13.364;2022-12-20T10:26:07;21.40;;;15.00;;
5040;SDS011;2539;52.568;13.364;2022-12-20T10:28:35;18.20;;;14.07;;
5040;SDS011;2539;52.568;13.364;2022-12-20T10:31:12;19.67;;;13.97;;
5040;SDS011;2539;52.568;13.364;2022-12-20T10:33:39;19.73;;;13.30;;
5040;SDS011;2539;52.568;13.364;2022-12-20T10:38:52;17.97;;;14.00;;
5040;SDS011;2539;52.568;13.364;2022-12-20T10:41:25;18.40;;;13.13;;
5040;SDS011;2539;52.568;13.364;2022-12-20T10:44:00;17.67;;;13.70;;
5040;SDS011;2539;52.568;13.364;2022-12-20T10:46:44;19.63;;;13.57;;
5040;SDS011;2539;52.568;13.364;2022-12-20T10:49:20;15.93;;;11.40;;
5040;SDS011;2539;52.568;13.364;2022-12-20T10:52:01;16.33;;;12.00;;
5040;SDS011;2539;52.568;13.364;2022-12-20T10:54:37;15.40;;;13.10;;
5040;SDS011;2539;52.568;13.364;2022-12-20T10:57:18;20.07;;;13.70;;
5040;SDS011;2539;52.568;13.364;2022-12-20T11:04:55;15.13;;;12.50;;
5040;SDS011;2539;52.568;13.364;2022-12-20T11:07:28;14.77;;;12.43;;
5040;SDS011;2539;52.568;13.364;2022-12-20T11:09:58;16.97;;;13.10;;
5040;SDS011;2539;52.568;13.364;2022-12-20T11:12:25;16.17;;;12.40;;
5040;SDS011;2539;52.568;13.364;2022-12-20T11:15:06;18.57;;;13.57;;
5040;SDS011;2539;52.568;13.364;2022-12-20T11:17:36;15.33;;;12.70;;
5040;SDS011;2539;52.568;13.364;2022-12-20T11:22:58;15.13;;;12.50;;
5040;SDS011;2539;52.568;13.364;2022-12-20T11:25:30;16.67;;;13.47;;
5040;SDS011;2539;52.568;13.364;2022-12-20T11:40:05;14.83;;;11.07;;
5040;SDS011;2539;52.568;13.364;2022-12-20T11:53:37;16.70;;;11.27;;
5040;SDS011;2539;52.568;13.364;2022-12-20T11:56:21;14.20;;;10.83;;
5040;SDS011;2539;52.568;13.364;2022-12-20T11:59:33;22.40;;;10.87;;
5040;SDS011;2539;52.568;13.364;2022-12-20T12:02:11;14.93;;;11.33;;
5040;SDS011;2539;52.568;13.364;2022-12-20T12:04:43;14.97;;;11.50;;
5040;SDS011;2539;52.568;13.364;2022-12-20T12:07:19;16.10;;;11.40;;
5040;SDS011;2539;52.568;13.364;2022-12-20T12:12:26;16.10;;;11.27;;
5040;SDS011;2539;52.568;13.364;2022-12-20T12:15:11;14.50;;;11.70;;
5040;SDS011;2539;52.568;13.364;2022-12-20T12:17:50;18.13;;;12.70;;
5040;SDS011;2539;52.568;13.364;2022-12-20T12:23:59;14.53;;;11.20;;
5040;SDS011;2539;52.568;13.364;2022-12-20T12:26:39;13.33;;;11.37;;
5040;SDS011;2539;52.568;13.364;2022-12-20T12:31:38;16.50;;;11.93;;
5040;SDS011;2539;52.568;13.364;2022-12-20T12:37:08;18.10;;;11.13;;
5040;SDS011;2539;52.568;13.364;2022-12-20T12:43:12;15.37;;;11.63;;
5040;SDS011;2539;52.568;13.364;2022-12-20T12:45:49;15.97;;;11.40;;
5040;SDS011;2539;52.568;13.364;2022-12-20T12:50:57;16.93;;;12.30;;
5040;SDS011;2539;52.568;13.364;2022-12-20T12:53:34;17.80;;;11.70;;
5040;SDS011;2539;52.568;13.364;2022-12-20T12:56:28;17.83;;;10.87;;
5040;SDS011;2539;52.568;13.364;2022-12-20T13:01:48;15.80;;;12.30;;
5040;SDS011;2539;52.568;13.364;2022-12-20T13:09:18;16.20;;;12.10;;
5040;SDS011;2539;52.568;13.364;2022-12-20T13:11:52;16.33;;;11.57;;
5040;SDS011;2539;52.568;13.364;2022-12-20T13:16:47;16.23;;;12.17;;
5040;SDS011;2539;52.568;13.364;2022-12-20T13:21:54;14.90;;;11.80;;
5040;SDS011;2539;52.568;13.364;2022-12-20T13:24:38;15.27;;;11.90;;
5040;SDS011;2539;52.568;13.364;2022-12-20T13:30:30;16.30;;;11.87;;
5040;SDS011;2539;52.568;13.364;2022-12-20T13:35:43;14.90;;;11.93;;
5040;SDS011;2539;52.568;13.364;2022-12-20T13:43:41;19.50;;;12.20;;
5040;SDS011;2539;52.568;13.364;2022-12-20T13:51:03;17.30;;;11.90;;
5040;SDS011;2539;52.568;13.364;2022-12-20T13:53:32;16.43;;;11.90;;
5040;SDS011;2539;52.568;13.364;2022-12-20T13:55:59;16.73;;;12.50;;
5040;SDS011;2539;52.568;13.364;2022-12-20T13:58:51;16.27;;;12.17;;
5040;SDS011;2539;52.568;13.364;2022-12-20T14:01:20;17.30;;;12.20;;
5040;SDS011;2539;52.568;13.364;2022-12-20T14:03:48;15.17;;;11.73;;
5040;SDS011;2539;52.568;13.364;2022-12-20T14:06:15;17.73;;;12.73;;
5040;SDS011;2539;52.568;13.364;2022-12-20T14:08:48;14.90;;;12.27;;
5040;SDS011;2539;52.568;13.364;2022-12-20T14:11:17;16.90;;;13.43;;
5040;SDS011;2539;52.568;13.364;2022-12-20T14:13:55;18.03;;;13.00;;
5040;SDS011;2539;52.568;13.364;2022-12-20T14:16:28;17.57;;;12.53;;
5040;SDS011;2539;52.568;13.364;2022-12-20T14:21:35;19.30;;;12.30;;
5040;SDS011;2539;52.568;13.364;2022-12-20T14:24:07;15.73;;;12.20;;
5040;SDS011;2539;52.568;13.364;2022-12-20T14:26:41;17.53;;;12.63;;
5040;SDS011;2539;52.568;13.364;2022-12-20T14:29:10;17.13;;;12.47;;
5040;SDS011;2539;52.568;13.364;2022-12-20T14:31:41;18.70;;;14.17;;
5040;SDS011;2539;52.568;13.364;2022-12-20T14:36:42;17.60;;;12.83;;
5040;SDS011;2539;52.568;13.364;2022-12-20T14:39:24;17.00;;;12.83;;
5040;SDS011;2539;52.568;13.364;2022-12-20T14:41:55;18.60;;;13.43;;
5040;SDS011;2539;52.568;13.364;2022-12-20T14:44:24;16.80;;;12.70;;
5040;SDS011;2539;52.568;13.364;2022-12-20T14:46:52;16.13;;;11.87;;
5040;SDS011;2539;52.568;13.364;2022-12-20T14:49:24;18.33;;;12.23;;
5040;SDS011;2539;52.568;13.364;2022-12-20T14:52:06;18.23;;;12.90;;
5040;SDS011;2539;52.568;13.364;2022-12-20T14:54:39;17.83;;;12.97;;
5040;SDS011;2539;52.568;13.364;2022-12-20T14:57:10;18.97;;;13.47;;
5040;SDS011;2539;52.568;13.364;2022-12-20T14:59:54;19.17;;;12.77;;
5040;SDS011;2539;52.568;13.364;2022-12-20T15:16:19;16.60;;;13.17;;
5040;SDS011;2539;52.568;13.364;2022-12-20T15:18:51;18.90;;;13.57;;
5040;SDS011;2539;52.568;13.364;2022-12-20T15:21:28;19.50;;;13.30;;
5040;SDS011;2539;52.568;13.364;2022-12-20T15:24:22;18.80;;;13.70;;
5040;SDS011;2539;52.568;13.364;2022-12-20T15:26:51;21.10;;;13.93;;
5040;SDS011;2539;52.568;13.364;2022-12-20T15:29:18;24.10;;;13.77;;
5040;SDS011;2539;52.568;13.364;2022-12-20T15:31:46;20.60;;;13.90;;
5040;SDS011;2539;52.568;13.364;2022-12-20T15:34:14;19.87;;;14.50;;
5040;SDS011;2539;52.568;13.364;2022-12-20T15:36:53;21.63;;;14.97;;
5040;SDS011;2539;52.568;13.364;2022-12-20T15:39:20;23.67;;;15.77;;
5040;SDS011;2539;52.568;13.364;2022-12-20T15:41:47;23.23;;;15.37;;
5040;SDS011;2539;52.568;13.364;2022-12-20T15:44:15;24.20;;;16.10;;
5040;SDS011;2539;52.568;13.364;2022-12-20T15:46:44;19.03;;;13.40;;
5040;SDS011;2539;52.568;13.364;2022-12-20T15:49:21;24.03;;;14.43;;
5040;SDS011;2539;52.568;13.364;2022-12-20T15:51:49;22.10;;;15.10;;
5040;SDS011;2539;52.568;13.364;2022-12-20T15:54:21;21.07;;;15.47;;
5040;SDS011;2539;52.568;13.364;2022-12-20T15:56:59;20.60;;;14.93;;
5040;SDS011;2539;52.568;13.364;2022-12-20T15:59:28;21.07;;;15.10;;
5040;SDS011;2539;52.568;13.364;2022-12-20T16:01:55;21.10;;;14.10;;
5040;SDS011;2539;52.568;13.364;2022-12-20T16:04:21;21.10;;;14.17;;
5040;SDS011;2539;52.568;13.364;2022-12-20T16:06:49;20.23;;;14.63;;
5040;SDS011;2539;52.568;13.364;2022-12-20T16:09:18;20.90;;;14.10;;
5040;SDS011;2539;52.568;13.364;2022-12-20T16:11:45;24.30;;;14.87;;
5040;SDS011;2539;52.568;13.364;2022-12-20T16:14:13;20.93;;;14.63;;
5040;SDS011;2539;52.568;13.364;2022-12-20T16:16:41;22.50;;;15.20;;
5040;SDS011;2539;52.568;13.364;2022-12-20T16:19:08;23.23;;;16.50;;
5040;SDS011;2539;52.568;13.364;2022-12-20T16:21:39;19.33;;;14.30;;
5040;SDS011;2539;52.568;13.364;2022-12-20T16:24:11;20.73;;;15.37;;
5040;SDS011;2539;52.568;13.364;2022-12-20T16:26:38;23.70;;;15.63;;
5040;SDS011;2539;52.568;13.364;2022-12-20T16:29:05;22.57;;;15.70;;
5040;SDS011;2539;52.568;13.364;2022-12-20T16:31:34;20.03;;;14.80;;
5040;SDS011;2539;52.568;13.364;2022-12-20T16:34:03;21.07;;;14.30;;
5040;SDS011;2539;52.568;13.364;2022-12-20T16:36:43;22.27;;;14.90;;
5040;SDS011;2539;52.568;13.364;2022-12-20T16:39:09;22.43;;;14.90;;
5040;SDS011;2539;52.568;13.364;2022-12-20T16:41:36;22.40;;;15.83;;
5040;SDS011;2539;52.568;13.364;2022-12-20T16:44:05;24.50;;;16.17;;
5040;SDS011;2539;52.568;13.364;2022-12-20T16:46:38;22.90;;;15.80;;
5040;SDS011;2539;52.568;13.364;2022-12-20T16:49:05;23.70;;;15.23;;
5040;SDS011;2539;52.568;13.364;2022-12-20T16:51:32;20.53;;;15.57;;
5040;SDS011;2539;52.568;13.364;2022-12-20T16:54:03;21.27;;;14.10;;
5040;SDS011;2539;52.568;13.364;2022-12-20T16:56:31;24.37;;;16.17;;
5040;SDS011;2539;52.568;13.364;2022-12-20T16:58:58;19.77;;;15.43;;
5040;SDS011;2539;52.568;13.364;2022-12-20T17:01:34;20.23;;;15.00;;
5040;SDS011;2539;52.568;13.364;2022-12-20T17:04:04;20.50;;;14.70;;